Time,TemperatureF,DewpointF,PressureIn,WindDirection,WindDirectionDegrees,WindSpeedMPH,WindSpeedGustMPH,Humidity,HourlyPrecipIn,Conditions,Clouds,dailyrainin,SoftwareType,DateUTC
2013-01-19 00:00:00,35.8,27.0,29.91,WSW,255,4.0,4.0,70,0.00,,,0.00,Wunderground v.1.15,2013-01-19 06:00:00,
2013-01-19 00:10:00,36.0,26.8,29.91,WSW,247,4.0,4.0,69,0.00,,,0.00,Wunderground v.1.15,2013-01-19 06:10:00,
2013-01-19 00:15:00,36.2,26.6,29.90,WSW,257,4.0,8.0,68,0.00,,,0.00,Wunderground v.1.15,2013-01-19 06:15:00,
2013-01-19 00:20:00,36.8,26.5,29.90,WSW,256,5.0,5.0,66,0.00,,,0.00,Wunderground v.1.15,2013-01-19 06:20:00,
2013-01-19 00:30:00,37.5,26.8,29.90,WSW,258,5.0,5.0,65,0.00,,,0.00,Wunderground v.1.15,2013-01-19 06:30:00,
2013-01-19 00:35:00,37.9,26.4,29.90,West,264,5.0,5.0,63,0.00,,,0.00,Wunderground v.1.15,2013-01-19 06:35:00,
2013-01-19 00:40:00,38.3,26.4,29.90,WSW,252,5.0,7.0,62,0.00,,,0.00,Wunderground v.1.15,2013-01-19 06:40:00,
2013-01-19 00:45:00,38.5,26.6,29.89,WSW,254,5.0,7.0,62,0.00,,,0.00,Wunderground v.1.15,2013-01-19 06:45:00,
2013-01-19 00:50:00,38.8,26.5,29.89,West,262,6.0,6.0,61,0.00,,,0.00,Wunderground v.1.15,2013-01-19 06:50:00,
2013-01-19 01:00:00,39.8,26.6,29.89,West,262,6.0,6.0,59,0.00,,,0.00,Wunderground v.1.15,2013-01-19 07:00:00,
2013-01-19 01:10:00,40.2,26.6,29.89,WSW,247,7.0,7.0,58,0.00,,,0.00,Wunderground v.1.15,2013-01-19 07:10:00,
2013-01-19 01:15:00,39.1,26.8,29.88,WSW,250,6.0,7.0,61,0.00,,,0.00,Wunderground v.1.15,2013-01-19 07:15:00,
2013-01-19 01:20:00,38.2,26.7,29.88,WSW,254,6.0,6.0,63,0.00,,,0.00,Wunderground v.1.15,2013-01-19 07:20:00,
2013-01-19 01:25:00,37.9,26.8,29.88,WSW,241,6.0,6.0,64,0.00,,,0.00,Wunderground v.1.15,2013-01-19 07:25:00,
2013-01-19 01:35:00,36.9,26.6,29.88,WSW,250,5.0,6.0,66,0.00,,,0.00,Wunderground v.1.15,2013-01-19 07:35:00,
2013-01-19 01:40:00,36.9,26.6,29.88,WSW,248,5.0,5.0,66,0.00,,,0.00,Wunderground v.1.15,2013-01-19 07:40:00,
2013-01-19 01:45:00,37.0,26.3,29.88,West,263,5.0,5.0,65,0.00,,,0.00,Wunderground v.1.15,2013-01-19 07:45:00,
2013-01-19 01:50:00,37.5,26.4,29.88,West,266,5.0,5.0,64,0.00,,,0.00,Wunderground v.1.15,2013-01-19 07:50:00,
2013-01-19 01:55:00,37.0,26.7,29.88,West,269,5.0,5.0,66,0.00,,,0.00,Wunderground v.1.15,2013-01-19 07:55:00,
2013-01-19 02:00:00,36.2,26.6,29.89,West,272,4.0,6.0,68,0.00,,,0.00,Wunderground v.1.15,2013-01-19 08:00:00,
2013-01-19 02:10:00,36.3,26.0,29.89,WSW,254,5.0,5.0,66,0.00,,,0.00,Wunderground v.1.15,2013-01-19 08:10:00,
2013-01-19 02:15:00,36.8,25.8,29.88,WSW,250,6.0,7.0,64,0.00,,,0.00,Wunderground v.1.15,2013-01-19 08:15:00,
2013-01-19 02:20:00,36.6,25.6,29.88,WSW,256,6.0,8.0,64,0.00,,,0.00,Wunderground v.1.15,2013-01-19 08:20:00,
2013-01-19 02:25:00,36.5,25.8,29.88,West,274,7.0,8.0,65,0.00,,,0.00,Wunderground v.1.15,2013-01-19 08:25:00,
2013-01-19 02:30:00,36.0,25.7,29.89,West,266,7.0,7.0,66,0.00,,,0.00,Wunderground v.1.15,2013-01-19 08:30:00,
2013-01-19 02:35:00,35.6,25.0,29.89,WSW,258,8.0,8.0,65,0.00,,,0.00,Wunderground v.1.15,2013-01-19 08:35:00,
2013-01-19 02:45:00,35.6,24.6,29.90,WSW,255,6.0,8.0,64,0.00,,,0.00,Wunderground v.1.15,2013-01-19 08:45:00,
2013-01-19 02:50:00,35.6,24.6,29.90,West,271,6.0,6.0,64,0.00,,,0.00,Wunderground v.1.15,2013-01-19 08:50:00,
2013-01-19 02:55:00,35.5,24.5,29.90,West,273,6.0,6.0,64,0.00,,,0.00,Wunderground v.1.15,2013-01-19 08:55:00,
2013-01-19 03:00:00,35.5,24.1,29.91,WSW,257,6.0,6.0,63,0.00,,,0.00,Wunderground v.1.15,2013-01-19 09:00:00,
2013-01-19 03:10:00,35.8,24.4,29.91,West,276,7.0,7.0,63,0.00,,,0.00,Wunderground v.1.15,2013-01-19 09:10:00,
2013-01-19 03:20:00,36.2,24.4,29.90,West,278,7.0,13.0,62,0.00,,,0.00,Wunderground v.1.15,2013-01-19 09:20:00,
2013-01-19 03:25:00,36.8,24.2,29.90,West,271,9.0,13.0,60,0.00,,,0.00,Wunderground v.1.15,2013-01-19 09:25:00,
2013-01-19 03:30:00,37.2,24.2,29.90,West,261,10.0,10.0,59,0.00,,,0.00,Wunderground v.1.15,2013-01-19 09:30:00,
2013-01-19 03:35:00,37.8,23.9,29.90,West,262,9.0,10.0,57,0.00,,,0.00,Wunderground v.1.15,2013-01-19 09:35:00,
2013-01-19 03:40:00,38.0,23.7,29.90,West,265,9.0,9.0,56,0.00,,,0.00,Wunderground v.1.15,2013-01-19 09:40:00,
2013-01-19 03:45:00,38.5,23.7,29.90,WNW,282,10.0,14.0,55,0.00,,,0.00,Wunderground v.1.15,2013-01-19 09:45:00,
2013-01-19 03:50:00,38.6,23.8,29.90,WNW,285,12.0,14.0,55,0.00,,,0.00,Wunderground v.1.15,2013-01-19 09:50:00,
2013-01-19 04:00:00,37.8,23.9,29.89,West,280,12.0,13.0,57,0.00,,,0.00,Wunderground v.1.15,2013-01-19 10:00:00,
2013-01-19 04:10:00,36.5,23.9,29.89,West,274,11.0,12.0,60,0.00,,,0.00,Wunderground v.1.15,2013-01-19 10:10:00,
2013-01-19 04:15:00,35.8,24.0,29.91,West,280,10.0,12.0,62,0.00,,,0.00,Wunderground v.1.15,2013-01-19 10:15:00,
2013-01-19 04:20:00,35.3,24.0,29.91,West,274,9.0,9.0,63,0.00,,,0.00,Wunderground v.1.15,2013-01-19 10:20:00,
2013-01-19 04:25:00,34.9,23.9,29.91,West,263,8.0,9.0,64,0.00,,,0.00,Wunderground v.1.15,2013-01-19 10:25:00,
2013-01-19 04:35:00,34.6,23.3,29.91,West,276,8.0,10.0,63,0.00,,,0.00,Wunderground v.1.15,2013-01-19 10:35:00,
2013-01-19 04:40:00,34.3,23.4,29.91,West,269,7.0,7.0,64,0.00,,,0.00,Wunderground v.1.15,2013-01-19 10:40:00,
2013-01-19 04:45:00,33.7,23.5,29.92,West,274,6.0,7.0,66,0.00,,,0.00,Wunderground v.1.15,2013-01-19 10:45:00,
2013-01-19 04:50:00,33.4,23.3,29.92,West,271,5.0,7.0,66,0.00,,,0.00,Wunderground v.1.15,2013-01-19 10:50:00,
2013-01-19 04:55:00,33.1,23.3,29.92,West,281,5.0,7.0,67,0.00,,,0.00,Wunderground v.1.15,2013-01-19 10:55:00,
2013-01-19 05:00:00,32.9,23.5,29.92,West,267,5.0,5.0,68,0.00,,,0.00,Wunderground v.1.15,2013-01-19 11:00:00,
2013-01-19 05:10:00,33.1,23.3,29.92,West,264,6.0,8.0,67,0.00,,,0.00,Wunderground v.1.15,2013-01-19 11:10:00,
2013-01-19 06:50:00,34.0,23.8,29.98,WNW,295,7.0,7.0,66,0.00,,,0.00,Wunderground v.1.15,2013-01-19 12:50:00,
2013-01-19 06:55:00,34.6,23.7,29.98,WNW,288,6.0,7.0,64,0.00,,,0.00,Wunderground v.1.15,2013-01-19 12:55:00,
2013-01-19 07:00:00,35.2,24.2,29.98,WNW,288,7.0,9.0,64,0.00,,,0.00,Wunderground v.1.15,2013-01-19 13:00:00,
2013-01-19 07:10:00,35.8,24.0,29.98,WNW,288,8.0,11.0,62,0.00,,,0.00,Wunderground v.1.15,2013-01-19 13:10:00,
2013-01-19 07:15:00,35.6,23.9,29.99,WNW,289,9.0,11.0,62,0.00,,,0.00,Wunderground v.1.15,2013-01-19 13:15:00,
2013-01-19 07:20:00,35.6,23.9,29.99,WNW,293,9.0,10.0,62,0.00,,,0.00,Wunderground v.1.15,2013-01-19 13:20:00,
2013-01-19 07:25:00,35.8,24.0,29.99,WNW,291,8.0,10.0,62,0.00,,,0.00,Wunderground v.1.15,2013-01-19 13:25:00,
2013-01-19 07:30:00,36.0,23.4,29.99,WNW,283,7.0,7.0,60,0.00,,,0.00,Wunderground v.1.15,2013-01-19 13:30:00,
2013-01-19 07:40:00,36.0,23.4,29.99,WNW,285,8.0,9.0,60,0.00,,,0.00,Wunderground v.1.15,2013-01-19 13:40:00,
2013-01-19 07:45:00,35.9,23.7,30.00,WNW,283,8.0,9.0,61,0.00,,,0.00,Wunderground v.1.15,2013-01-19 13:45:00,
2013-01-19 07:50:00,36.0,23.8,30.00,WNW,296,8.0,10.0,61,0.00,,,0.00,Wunderground v.1.15,2013-01-19 13:50:00,
2013-01-19 07:55:00,36.3,23.7,30.00,WNW,288,9.0,10.0,60,0.00,,,0.00,Wunderground v.1.15,2013-01-19 13:55:00,
2013-01-19 08:00:00,36.3,23.7,30.01,WNW,293,9.0,9.0,60,0.00,,,0.00,Wunderground v.1.15,2013-01-19 14:00:00,
2013-01-19 08:10:00,36.0,23.8,30.01,WNW,293,8.0,8.0,61,0.00,,,0.00,Wunderground v.1.15,2013-01-19 14:10:00,
2013-01-19 08:20:00,35.3,24.0,30.02,WNW,291,8.0,8.0,63,0.00,,,0.00,Wunderground v.1.15,2013-01-19 14:20:00,
2013-01-19 08:25:00,35.3,24.0,30.02,WNW,290,7.0,8.0,63,0.00,,,0.00,Wunderground v.1.15,2013-01-19 14:25:00,
2013-01-19 08:30:00,35.5,24.1,30.03,WNW,291,6.0,10.0,63,0.00,,,0.00,Wunderground v.1.15,2013-01-19 14:30:00,
2013-01-19 08:35:00,35.6,23.9,30.03,WNW,288,7.0,10.0,62,0.00,,,0.00,Wunderground v.1.15,2013-01-19 14:35:00,
2013-01-19 08:40:00,36.2,24.4,30.03,West,278,8.0,8.0,62,0.00,,,0.00,Wunderground v.1.15,2013-01-19 14:40:00,
2013-01-19 08:45:00,36.3,24.1,30.05,West,275,8.0,8.0,61,0.00,,,0.00,Wunderground v.1.15,2013-01-19 14:45:00,
2013-01-19 08:55:00,36.5,24.3,30.05,West,281,8.0,8.0,61,0.00,,,0.00,Wunderground v.1.15,2013-01-19 14:55:00,
2013-01-19 09:00:00,36.5,24.3,30.05,West,277,9.0,9.0,61,0.00,,,0.00,Wunderground v.1.15,2013-01-19 15:00:00,
2013-01-19 09:10:00,37.3,24.7,30.05,West,279,9.0,9.0,60,0.00,,,0.00,Wunderground v.1.15,2013-01-19 15:10:00,
2013-01-19 09:15:00,37.6,25.0,30.06,West,270,9.0,9.0,60,0.00,,,0.00,Wunderground v.1.15,2013-01-19 15:15:00,
2013-01-19 09:25:00,37.2,25.8,30.06,West,272,8.0,10.0,63,0.00,,,0.00,Wunderground v.1.15,2013-01-19 15:25:00,
2013-01-19 09:30:00,37.0,25.9,30.07,West,273,8.0,8.0,64,0.00,,,0.00,Wunderground v.1.15,2013-01-19 15:30:00,
2013-01-19 09:40:00,37.2,26.1,30.07,West,272,6.0,6.0,64,0.00,,,0.00,Wunderground v.1.15,2013-01-19 15:40:00,
2013-01-19 09:45:00,37.3,26.2,30.08,West,269,7.0,7.0,64,0.00,,,0.00,Wunderground v.1.15,2013-01-19 15:45:00,
2013-01-19 09:50:00,37.6,26.9,30.08,West,275,6.0,6.0,65,0.00,,,0.00,Wunderground v.1.15,2013-01-19 15:50:00,
2013-01-19 09:55:00,37.9,26.8,30.08,West,269,6.0,7.0,64,0.00,,,0.00,Wunderground v.1.15,2013-01-19 15:55:00,
2013-01-19 10:05:00,38.3,26.8,30.08,West,276,7.0,7.0,63,0.00,,,0.00,Wunderground v.1.15,2013-01-19 16:05:00,
2013-01-19 10:10:00,38.9,27.4,30.08,West,272,7.0,7.0,63,0.00,,,0.00,Wunderground v.1.15,2013-01-19 16:10:00,
2013-01-19 10:15:00,39.5,27.2,30.08,West,278,6.0,9.0,61,0.00,,,0.00,Wunderground v.1.15,2013-01-19 16:15:00,
2013-01-19 10:20:00,40.1,27.3,30.08,WNW,282,7.0,7.0,60,0.00,,,0.00,Wunderground v.1.15,2013-01-19 16:20:00,
2013-01-19 10:25:00,40.6,27.0,30.08,West,276,7.0,10.0,58,0.00,,,0.00,Wunderground v.1.15,2013-01-19 16:25:00,
2013-01-19 10:30:00,41.2,27.1,30.09,West,275,8.0,8.0,57,0.00,,,0.00,Wunderground v.1.15,2013-01-19 16:30:00,
2013-01-19 10:40:00,42.1,27.9,30.09,WNW,288,8.0,8.0,57,0.00,,,0.00,Wunderground v.1.15,2013-01-19 16:40:00,
2013-01-19 10:45:00,42.5,27.5,30.09,WNW,285,8.0,8.0,55,0.00,,,0.00,Wunderground v.1.15,2013-01-19 16:45:00,
2013-01-19 10:50:00,42.9,27.8,30.09,WNW,288,8.0,8.0,55,0.00,,,0.00,Wunderground v.1.15,2013-01-19 16:50:00,
2013-01-19 10:55:00,43.3,28.2,30.09,West,277,8.0,8.0,55,0.00,,,0.00,Wunderground v.1.15,2013-01-19 16:55:00,
2013-01-19 11:00:00,43.9,28.3,30.09,WNW,290,8.0,8.0,54,0.00,,,0.00,Wunderground v.1.15,2013-01-19 17:00:00,
2013-01-19 11:15:00,46.1,28.5,30.08,WNW,302,9.0,10.0,50,0.00,,,0.00,Wunderground v.1.15,2013-01-19 17:15:00,
2013-01-19 11:20:00,46.5,28.3,30.08,WNW,293,9.0,9.0,49,0.00,,,0.00,Wunderground v.1.15,2013-01-19 17:20:00,
2013-01-19 11:30:00,47.6,28.3,30.07,WNW,297,10.0,11.0,47,0.00,,,0.00,Wunderground v.1.15,2013-01-19 17:30:00,
2013-01-19 11:40:00,48.2,28.9,30.07,WNW,302,10.0,10.0,47,0.00,,,0.00,Wunderground v.1.15,2013-01-19 17:40:00,
2013-01-19 11:50:00,48.9,28.5,30.07,West,281,10.0,15.0,45,0.00,,,0.00,Wunderground v.1.15,2013-01-19 17:50:00,
2013-01-19 11:55:00,49.5,27.9,30.07,WNW,293,12.0,15.0,43,0.00,,,0.00,Wunderground v.1.15,2013-01-19 17:55:00,
2013-01-19 12:00:00,49.8,27.6,30.06,WNW,300,13.0,13.0,42,0.00,,,0.00,Wunderground v.1.15,2013-01-19 18:00:00,
2013-01-19 12:10:00,50.1,28.4,30.06,WNW,285,11.0,11.0,43,0.00,,,0.00,Wunderground v.1.15,2013-01-19 18:10:00,
2013-01-19 12:15:00,50.4,28.7,30.04,WNW,291,11.0,13.0,43,0.00,,,0.00,Wunderground v.1.15,2013-01-19 18:15:00,
2013-01-19 12:20:00,50.7,27.2,30.04,WNW,296,12.0,12.0,40,0.00,,,0.00,Wunderground v.1.15,2013-01-19 18:20:00,
2013-01-19 12:30:00,51.1,26.3,30.05,NW,305,14.0,14.0,38,0.00,,,0.00,Wunderground v.1.15,2013-01-19 18:30:00,
2013-01-19 12:40:00,51.3,27.8,30.05,WNW,297,15.0,15.0,40,0.00,,,0.00,Wunderground v.1.15,2013-01-19 18:40:00,
2013-01-19 12:45:00,51.3,27.2,30.04,NW,307,15.0,17.0,39,0.00,,,0.00,Wunderground v.1.15,2013-01-19 18:45:00,
2013-01-19 12:50:00,51.4,27.9,30.04,WNW,288,14.0,15.0,40,0.00,,,0.00,Wunderground v.1.15,2013-01-19 18:50:00,
2013-01-19 12:55:00,51.6,27.4,30.04,WNW,289,14.0,15.0,39,0.00,,,0.00,Wunderground v.1.15,2013-01-19 18:55:00,
2013-01-19 13:05:00,51.9,27.1,30.03,WNW,297,15.0,23.0,38,0.00,,,0.00,Wunderground v.1.15,2013-01-19 19:05:00,
2013-01-19 13:10:00,52.0,25.8,30.03,WNW,287,16.0,16.0,36,0.00,,,0.00,Wunderground v.1.15,2013-01-19 19:10:00,
2013-01-19 13:15:00,52.0,26.5,30.05,WNW,289,15.0,16.0,37,0.00,,,0.00,Wunderground v.1.15,2013-01-19 19:15:00,
2013-01-19 13:25:00,52.3,26.8,30.05,WNW,288,16.0,16.0,37,0.00,,,0.00,Wunderground v.1.15,2013-01-19 19:25:00,
2013-01-19 13:35:00,52.5,27.6,30.04,NW,307,16.0,21.0,38,0.00,,,0.00,Wunderground v.1.15,2013-01-19 19:35:00,
2013-01-19 13:40:00,52.6,26.4,30.04,WNW,303,16.0,16.0,36,0.00,,,0.00,Wunderground v.1.15,2013-01-19 19:40:00,
2013-01-19 13:45:00,52.6,27.0,30.04,WNW,293,16.0,16.0,37,0.00,,,0.00,Wunderground v.1.15,2013-01-19 19:45:00,
2013-01-19 13:50:00,52.9,26.0,30.04,WNW,300,17.0,18.0,35,0.00,,,0.00,Wunderground v.1.15,2013-01-19 19:50:00,
2013-01-19 14:00:00,52.9,25.3,30.04,NW,307,17.0,17.0,34,0.00,,,0.00,Wunderground v.1.15,2013-01-19 20:00:00,
2013-01-19 14:05:00,53.1,27.5,30.04,NW,310,15.0,17.0,37,0.00,,,0.00,Wunderground v.1.15,2013-01-19 20:05:00,
2013-01-19 14:15:00,53.1,26.8,30.05,NW,325,15.0,15.0,36,0.00,,,0.00,Wunderground v.1.15,2013-01-19 20:15:00,
2013-01-19 14:25:00,52.9,27.3,30.05,NW,307,13.0,15.0,37,0.00,,,0.00,Wunderground v.1.15,2013-01-19 20:25:00,
2013-01-19 14:30:00,52.8,25.9,30.05,NW,310,14.0,15.0,35,0.00,,,0.00,Wunderground v.1.15,2013-01-19 20:30:00,
2013-01-19 14:35:00,52.8,27.2,30.05,NW,320,14.0,15.0,37,0.00,,,0.00,Wunderground v.1.15,2013-01-19 20:35:00,
2013-01-19 14:40:00,52.8,26.6,30.05,WNW,291,14.0,16.0,36,0.00,,,0.00,Wunderground v.1.15,2013-01-19 20:40:00,
2013-01-19 14:45:00,52.8,27.2,30.05,NW,310,14.0,16.0,37,0.00,,,0.00,Wunderground v.1.15,2013-01-19 20:45:00,
2013-01-19 14:55:00,53.1,26.1,30.05,WNW,302,13.0,18.0,35,0.00,,,0.00,Wunderground v.1.15,2013-01-19 20:55:00,
2013-01-19 15:00:00,53.1,27.5,30.06,NW,308,13.0,13.0,37,0.00,,,0.00,Wunderground v.1.15,2013-01-19 21:00:00,
2013-01-19 15:10:00,52.9,28.0,30.06,WNW,298,13.0,13.0,38,0.00,,,0.00,Wunderground v.1.15,2013-01-19 21:10:00,
2013-01-19 15:15:00,52.8,29.1,30.06,NW,307,12.0,13.0,40,0.00,,,0.00,Wunderground v.1.15,2013-01-19 21:15:00,
2013-01-19 15:20:00,52.8,26.6,30.06,WNW,294,11.0,16.0,36,0.00,,,0.00,Wunderground v.1.15,2013-01-19 21:20:00,
2013-01-19 15:30:00,52.6,27.7,30.07,NW,311,12.0,12.0,38,0.00,,,0.00,Wunderground v.1.15,2013-01-19 21:30:00,
2013-01-19 15:40:00,52.6,28.3,30.07,NW,311,11.0,11.0,39,0.00,,,0.00,Wunderground v.1.15,2013-01-19 21:40:00,
2013-01-19 15:50:00,52.6,26.4,30.07,NW,313,9.0,10.0,36,0.00,,,0.00,Wunderground v.1.15,2013-01-19 21:50:00,
2013-01-19 16:00:00,52.5,28.2,30.08,NW,314,8.0,8.0,39,0.00,,,0.00,Wunderground v.1.15,2013-01-19 22:00:00,
2013-01-19 16:20:00,51.9,28.9,30.09,NW,323,7.0,7.0,41,0.00,,,0.00,Wunderground v.1.15,2013-01-19 22:20:00,
2013-01-19 16:30:00,51.1,28.2,30.10,NW,323,6.0,6.0,41,0.00,,,0.00,Wunderground v.1.15,2013-01-19 22:30:00,
2013-01-19 16:35:00,51.0,28.7,30.10,NW,325,6.0,6.0,42,0.00,,,0.00,Wunderground v.1.15,2013-01-19 22:35:00,
2013-01-19 16:40:00,50.8,27.9,30.10,NW,323,5.0,7.0,41,0.00,,,0.00,Wunderground v.1.15,2013-01-19 22:40:00,
2013-01-19 16:50:00,50.7,28.4,30.11,NW,322,5.0,6.0,42,0.00,,,0.00,Wunderground v.1.15,2013-01-19 22:50:00,
2013-01-19 16:55:00,50.5,27.7,30.11,NW,321,5.0,6.0,41,0.00,,,0.00,Wunderground v.1.15,2013-01-19 22:55:00,
2013-01-19 17:00:00,50.1,27.3,30.12,NW,319,5.0,7.0,41,0.00,,,0.00,Wunderground v.1.15,2013-01-19 23:00:00,
2013-01-19 17:05:00,49.8,27.6,30.12,NW,316,6.0,7.0,42,0.00,,,0.00,Wunderground v.1.15,2013-01-19 23:05:00,
2013-01-19 17:15:00,48.9,27.4,30.13,NW,317,6.0,6.0,43,0.00,,,0.00,Wunderground v.1.15,2013-01-19 23:15:00,
2013-01-19 17:20:00,48.3,26.8,30.13,NW,314,5.0,5.0,43,0.00,,,0.00,Wunderground v.1.15,2013-01-19 23:20:00,
2013-01-19 17:30:00,46.8,27.6,30.14,NW,322,5.0,5.0,47,0.00,,,0.00,Wunderground v.1.15,2013-01-19 23:30:00,
2013-01-19 17:35:00,45.7,27.1,30.14,NW,321,5.0,5.0,48,0.00,,,0.00,Wunderground v.1.15,2013-01-19 23:35:00,
2013-01-19 17:40:00,45.1,26.6,30.14,NW,321,5.0,6.0,48,0.00,,,0.00,Wunderground v.1.15,2013-01-19 23:40:00,
2013-01-19 17:45:00,44.6,26.6,30.15,NW,319,5.0,6.0,49,0.00,,,0.00,Wunderground v.1.15,2013-01-19 23:45:00,
2013-01-19 17:50:00,44.2,26.2,30.15,NW,314,5.0,6.0,49,0.00,,,0.00,Wunderground v.1.15,2013-01-19 23:50:00,
2013-01-19 17:55:00,44.1,26.1,30.15,NW,316,5.0,6.0,49,0.00,,,0.00,Wunderground v.1.15,2013-01-19 23:55:00,
2013-01-19 18:10:00,43.6,25.7,30.16,NW,319,6.0,6.0,49,0.00,,,0.00,Wunderground v.1.15,2013-01-20 00:10:00,
2013-01-19 18:15:00,43.5,25.6,30.16,NW,320,6.0,7.0,49,0.00,,,0.00,Wunderground v.1.15,2013-01-20 00:15:00,
2013-01-19 18:25:00,42.8,26.4,30.16,NW,319,7.0,8.0,52,0.00,,,0.00,Wunderground v.1.15,2013-01-20 00:25:00,
2013-01-19 18:30:00,42.3,25.9,30.17,NW,319,7.0,7.0,52,0.00,,,0.00,Wunderground v.1.15,2013-01-20 00:30:00,
2013-01-19 18:40:00,41.6,25.7,30.17,NW,319,6.0,6.0,53,0.00,,,0.00,Wunderground v.1.15,2013-01-20 00:40:00,
2013-01-19 18:45:00,41.6,25.7,30.18,NW,315,6.0,6.0,53,0.00,,,0.00,Wunderground v.1.15,2013-01-20 00:45:00,
2013-01-19 18:55:00,42.6,25.2,30.18,NW,311,7.0,8.0,50,0.00,,,0.00,Wunderground v.1.15,2013-01-20 00:55:00,
2013-01-19 19:00:00,42.6,25.7,30.18,NW,320,7.0,9.0,51,0.00,,,0.00,Wunderground v.1.15,2013-01-20 01:00:00,
2013-01-19 19:10:00,41.5,26.1,30.18,NW,323,7.0,7.0,54,0.00,,,0.00,Wunderground v.1.15,2013-01-20 01:10:00,
2013-01-19 19:15:00,40.8,26.3,30.20,NNW,333,6.0,7.0,56,0.00,,,0.00,Wunderground v.1.15,2013-01-20 01:15:00,
2013-01-19 19:20:00,40.1,26.1,30.20,NNW,339,6.0,6.0,57,0.00,,,0.00,Wunderground v.1.15,2013-01-20 01:20:00,
2013-01-19 19:30:00,39.8,25.8,30.20,NNW,338,7.0,7.0,57,0.00,,,0.00,Wunderground v.1.15,2013-01-20 01:30:00,
2013-01-19 19:35:00,39.8,25.8,30.20,NNW,346,7.0,7.0,57,0.00,,,0.00,Wunderground v.1.15,2013-01-20 01:35:00,
2013-01-19 19:40:00,39.3,25.7,30.20,NNW,345,7.0,7.0,58,0.00,,,0.00,Wunderground v.1.15,2013-01-20 01:40:00,
2013-01-19 19:45:00,39.2,25.6,30.21,NNW,345,7.0,9.0,58,0.00,,,0.00,Wunderground v.1.15,2013-01-20 01:45:00,
2013-01-19 19:50:00,38.9,25.8,30.21,NNW,347,7.0,7.0,59,0.00,,,0.00,Wunderground v.1.15,2013-01-20 01:50:00,
2013-01-19 20:00:00,38.2,26.3,30.22,North,351,6.0,7.0,62,0.00,,,0.00,Wunderground v.1.15,2013-01-20 02:00:00,
2013-01-19 20:10:00,37.3,25.8,30.22,NNW,347,6.0,6.0,63,0.00,,,0.00,Wunderground v.1.15,2013-01-20 02:10:00,
2013-01-19 20:15:00,37.3,25.8,30.22,NNW,346,6.0,7.0,63,0.00,,,0.00,Wunderground v.1.15,2013-01-20 02:15:00,
2013-01-19 20:20:00,37.8,26.3,30.22,North,356,7.0,13.0,63,0.00,,,0.00,Wunderground v.1.15,2013-01-20 02:20:00,
2013-01-19 20:25:00,38.0,26.5,30.22,NNW,347,9.0,13.0,63,0.00,,,0.00,Wunderground v.1.15,2013-01-20 02:25:00,
2013-01-19 20:30:00,37.9,26.8,30.23,North,358,9.0,12.0,64,0.00,,,0.00,Wunderground v.1.15,2013-01-20 02:30:00,
2013-01-19 20:35:00,37.6,26.5,30.23,North,353,10.0,12.0,64,0.00,,,0.00,Wunderground v.1.15,2013-01-20 02:35:00,
2013-01-19 20:45:00,37.3,27.0,30.23,North,0,9.0,13.0,66,0.00,,,0.00,Wunderground v.1.15,2013-01-20 02:45:00,
2013-01-19 20:55:00,36.6,27.0,30.23,North,0,8.0,9.0,68,0.00,,,0.00,Wunderground v.1.15,2013-01-20 02:55:00,
2013-01-19 21:00:00,36.3,27.1,30.24,North,0,7.0,7.0,69,0.00,,,0.00,Wunderground v.1.15,2013-01-20 03:00:00,
2013-01-19 21:10:00,35.8,27.0,30.24,North,357,7.0,7.0,70,0.00,,,0.00,Wunderground v.1.15,2013-01-20 03:10:00,
2013-01-19 21:15:00,35.5,27.0,30.24,North,358,7.0,7.0,71,0.00,,,0.00,Wunderground v.1.15,2013-01-20 03:15:00,
2013-01-19 21:20:00,35.2,26.7,30.24,North,356,7.0,8.0,71,0.00,,,0.00,Wunderground v.1.15,2013-01-20 03:20:00,
2013-01-19 21:30:00,35.2,27.1,30.24,North,0,8.0,8.0,72,0.00,,,0.00,Wunderground v.1.15,2013-01-20 03:30:00,
2013-01-19 21:35:00,35.0,26.9,30.24,North,358,9.0,9.0,72,0.00,,,0.00,Wunderground v.1.15,2013-01-20 03:35:00,
2013-01-19 21:40:00,35.0,26.9,30.24,North,0,9.0,9.0,72,0.00,,,0.00,Wunderground v.1.15,2013-01-20 03:40:00,
2013-01-19 21:50:00,34.9,26.8,30.25,North,0,8.0,10.0,72,0.00,,,0.00,Wunderground v.1.15,2013-01-20 03:50:00,
2013-01-19 21:55:00,35.0,26.5,30.25,North,358,8.0,10.0,71,0.00,,,0.00,Wunderground v.1.15,2013-01-20 03:55:00,
2013-01-19 22:00:00,34.9,26.4,30.26,North,0,8.0,8.0,71,0.00,,,0.00,Wunderground v.1.15,2013-01-20 04:00:00,
2013-01-19 22:05:00,34.7,26.6,30.26,North,358,6.0,8.0,72,0.00,,,0.00,Wunderground v.1.15,2013-01-20 04:05:00,
2013-01-19 22:15:00,34.9,26.1,30.25,North,3,7.0,7.0,70,0.00,,,0.00,Wunderground v.1.15,2013-01-20 04:15:00,
2013-01-19 22:20:00,34.7,26.3,30.25,North,358,7.0,7.0,71,0.00,,,0.00,Wunderground v.1.15,2013-01-20 04:20:00,
2013-01-19 22:30:00,34.3,26.2,30.26,North,10,7.0,7.0,72,0.00,,,0.00,Wunderground v.1.15,2013-01-20 04:30:00,
2013-01-19 22:35:00,34.0,26.3,30.26,North,0,7.0,7.0,73,0.00,,,0.00,Wunderground v.1.15,2013-01-20 04:35:00,
2013-01-19 22:40:00,33.8,26.1,30.26,North,2,6.0,8.0,73,0.00,,,0.00,Wunderground v.1.15,2013-01-20 04:40:00,
2013-01-19 22:50:00,33.4,26.3,30.26,North,6,8.0,8.0,75,0.00,,,0.00,Wunderground v.1.15,2013-01-20 04:50:00,
2013-01-19 22:55:00,32.9,26.2,30.26,North,10,8.0,10.0,76,0.00,,,0.00,Wunderground v.1.15,2013-01-20 04:55:00,
2013-01-19 23:01:00,32.5,26.4,30.28,North,9,8.0,8.0,78,0.00,,,0.00,Wunderground v.1.15,2013-01-20 05:01:00,
2013-01-19 23:05:00,32.2,26.4,30.28,NNE,24,8.0,10.0,79,0.00,,,0.00,Wunderground v.1.15,2013-01-20 05:05:00,
2013-01-19 23:10:00,31.9,26.4,30.28,NNE,21,7.0,8.0,80,0.00,,,0.00,Wunderground v.1.15,2013-01-20 05:10:00,
2013-01-19 23:15:00,31.5,26.6,30.28,North,7,8.0,12.0,82,0.00,,,0.00,Wunderground v.1.15,2013-01-20 05:15:00,
2013-01-19 23:20:00,31.0,26.7,30.28,NNE,18,10.0,10.0,84,0.00,,,0.00,Wunderground v.1.15,2013-01-20 05:20:00,
2013-01-19 23:25:00,30.6,26.6,30.28,NNE,28,10.0,10.0,85,0.00,,,0.00,Wunderground v.1.15,2013-01-20 05:25:00,
2013-01-19 23:30:00,30.3,26.6,30.28,North,6,8.0,10.0,86,0.00,,,0.00,Wunderground v.1.15,2013-01-20 05:30:00,
2013-01-19 23:35:00,30.0,26.3,30.28,NNE,27,7.0,10.0,86,0.00,,,0.00,Wunderground v.1.15,2013-01-20 05:35:00,
2013-01-19 23:45:00,29.5,26.1,30.28,NNE,20,5.0,6.0,87,0.00,,,0.00,Wunderground v.1.15,2013-01-20 05:45:00,
2013-01-19 23:50:00,29.4,26.3,30.28,NNE,18,5.0,5.0,88,0.00,,,0.00,Wunderground v.1.15,2013-01-20 05:50:00,
2013-01-19 23:55:00,29.1,26.0,30.28,NNE,30,5.0,5.0,88,0.00,,,0.00,Wunderground v.1.15,2013-01-20 05:55:00,